sensor_id;sensor_type;location;lat;lon;timestamp;P1;durP1;ratioP1;P2;durP2;ratioP2
819;SDS011;392;48.838;2.322;2023-04-03T00:01:00;20.20;;;18.20;;
819;SDS011;392;48.838;2.322;2023-04-03T00:03:30;18.87;;;17.17;;
819;SDS011;392;48.838;2.322;2023-04-03T00:05:58;20.13;;;18.20;;
819;SDS011;392;48.838;2.322;2023-04-03T00:08:25;19.27;;;17.47;;
819;SDS011;392;48.838;2.322;2023-04-03T00:10:55;20.70;;;18.70;;
819;SDS011;392;48.838;2.322;2023-04-03T00:13:23;21.80;;;18.00;;
819;SDS011;392;48.838;2.322;2023-04-03T00:15:51;19.80;;;18.00;;
819;SDS011;392;48.838;2.322;2023-04-03T00:18:19;20.33;;;18.43;;
819;SDS011;392;48.838;2.322;2023-04-03T00:20:48;19.43;;;17.63;;
819;SDS011;392;48.838;2.322;2023-04-03T00:23:16;19.00;;;17.30;;
819;SDS011;392;48.838;2.322;2023-04-03T00:25:43;20.43;;;18.43;;
819;SDS011;392;48.838;2.322;2023-04-03T00:28:11;19.23;;;17.13;;
819;SDS011;392;48.838;2.322;2023-04-03T00:30:39;19.70;;;17.70;;
819;SDS011;392;48.838;2.322;2023-04-03T00:33:06;17.87;;;16.23;;
819;SDS011;392;48.838;2.322;2023-04-03T00:35:35;17.97;;;16.27;;
819;SDS011;392;48.838;2.322;2023-04-03T00:38:04;18.27;;;16.50;;
819;SDS011;392;48.838;2.322;2023-04-03T00:40:33;20.33;;;18.20;;
819;SDS011;392;48.838;2.322;2023-04-03T00:43:05;18.80;;;16.90;;
819;SDS011;392;48.838;2.322;2023-04-03T00:45:40;19.57;;;17.77;;
819;SDS011;392;48.838;2.322;2023-04-03T00:48:11;20.27;;;18.37;;
819;SDS011;392;48.838;2.322;2023-04-03T00:50:42;19.53;;;17.63;;
819;SDS011;392;48.838;2.322;2023-04-03T00:53:12;19.63;;;17.80;;
819;SDS011;392;48.838;2.322;2023-04-03T00:55:44;19.43;;;17.50;;
819;SDS011;392;48.838;2.322;2023-04-03T00:58:16;18.80;;;16.90;;
819;SDS011;392;48.838;2.322;2023-04-03T01:00:48;18.97;;;17.00;;
819;SDS011;392;48.838;2.322;2023-04-03T01:03:23;18.47;;;16.77;;
819;SDS011;392;48.838;2.322;2023-04-03T01:05:52;19.43;;;17.40;;
819;SDS011;392;48.838;2.322;2023-04-03T01:08:21;18.70;;;17.00;;
819;SDS011;392;48.838;2.322;2023-04-03T01:10:49;17.73;;;16.07;;
819;SDS011;392;48.838;2.322;2023-04-03T01:13:19;19.47;;;17.47;;
819;SDS011;392;48.838;2.322;2023-04-03T01:15:51;19.17;;;17.20;;
819;SDS011;392;48.838;2.322;2023-04-03T01:18:19;18.43;;;16.53;;
819;SDS011;392;48.838;2.322;2023-04-03T01:21:05;18.53;;;16.50;;
819;SDS011;392;48.838;2.322;2023-04-03T01:24:21;17.80;;;16.10;;
819;SDS011;392;48.838;2.322;2023-04-03T01:27:00;19.27;;;17.47;;
819;SDS011;392;48.838;2.322;2023-04-03T01:29:30;18.67;;;16.87;;
819;SDS011;392;48.838;2.322;2023-04-03T01:32:00;18.90;;;17.00;;
819;SDS011;392;48.838;2.322;2023-04-03T01:34:30;18.00;;;16.30;;
819;SDS011;392;48.838;2.322;2023-04-03T01:36:58;17.80;;;16.00;;
819;SDS011;392;48.838;2.322;2023-04-03T01:39:26;17.90;;;16.20;;
819;SDS011;392;48.838;2.322;2023-04-03T01:41:54;17.30;;;15.50;;
819;SDS011;392;48.838;2.322;2023-04-03T01:44:28;18.50;;;16.67;;
819;SDS011;392;48.838;2.322;2023-04-03T01:46:55;19.30;;;17.27;;
819;SDS011;392;48.838;2.322;2023-04-03T01:49:26;18.33;;;16.47;;
819;SDS011;392;48.838;2.322;2023-04-03T01:51:54;19.50;;;17.60;;
819;SDS011;392;48.838;2.322;2023-04-03T01:54:21;20.00;;;18.03;;
819;SDS011;392;48.838;2.322;2023-04-03T01:56:49;19.53;;;17.63;;
819;SDS011;392;48.838;2.322;2023-04-03T01:59:18;19.90;;;17.90;;
819;SDS011;392;48.838;2.322;2023-04-03T02:01:46;20.60;;;18.70;;
819;SDS011;392;48.838;2.322;2023-04-03T02:04:14;20.23;;;18.23;;
819;SDS011;392;48.838;2.322;2023-04-03T02:06:42;20.13;;;18.13;;
819;SDS011;392;48.838;2.322;2023-04-03T02:09:10;21.37;;;19.27;;
819;SDS011;392;48.838;2.322;2023-04-03T02:11:37;21.13;;;19.00;;
819;SDS011;392;48.838;2.322;2023-04-03T02:14:04;20.97;;;18.93;;
819;SDS011;392;48.838;2.322;2023-04-03T02:16:33;20.80;;;18.80;;
819;SDS011;392;48.838;2.322;2023-04-03T02:19:00;21.47;;;18.57;;
819;SDS011;392;48.838;2.322;2023-04-03T02:21:29;20.77;;;18.77;;
819;SDS011;392;48.838;2.322;2023-04-03T02:23:58;20.80;;;18.80;;
819;SDS011;392;48.838;2.322;2023-04-03T02:26:26;18.60;;;16.87;;
819;SDS011;392;48.838;2.322;2023-04-03T02:28:53;18.40;;;16.57;;
819;SDS011;392;48.838;2.322;2023-04-03T02:31:21;18.73;;;16.90;;
819;SDS011;392;48.838;2.322;2023-04-03T02:33:50;18.00;;;16.30;;
819;SDS011;392;48.838;2.322;2023-04-03T02:36:17;20.10;;;17.40;;
819;SDS011;392;48.838;2.322;2023-04-03T02:38:51;18.47;;;16.77;;
819;SDS011;392;48.838;2.322;2023-04-03T02:41:19;19.53;;;17.57;;
819;SDS011;392;48.838;2.322;2023-04-03T02:43:48;18.80;;;17.00;;
819;SDS011;392;48.838;2.322;2023-04-03T02:46:16;18.90;;;17.00;;
819;SDS011;392;48.838;2.322;2023-04-03T02:48:43;18.90;;;16.90;;
819;SDS011;392;48.838;2.322;2023-04-03T02:51:10;18.00;;;16.30;;
819;SDS011;392;48.838;2.322;2023-04-03T02:53:37;18.13;;;16.33;;
819;SDS011;392;48.838;2.322;2023-04-03T02:56:11;17.90;;;16.07;;
819;SDS011;392;48.838;2.322;2023-04-03T02:58:39;16.60;;;15.10;;
819;SDS011;392;48.838;2.322;2023-04-03T03:01:08;17.60;;;16.00;;
819;SDS011;392;48.838;2.322;2023-04-03T03:03:37;16.27;;;14.77;;
819;SDS011;392;48.838;2.322;2023-04-03T03:06:05;16.40;;;14.87;;
819;SDS011;392;48.838;2.322;2023-04-03T03:08:35;15.90;;;14.40;;
819;SDS011;392;48.838;2.322;2023-04-03T03:11:03;15.93;;;14.43;;
819;SDS011;392;48.838;2.322;2023-04-03T03:13:32;16.80;;;15.27;;
819;SDS011;392;48.838;2.322;2023-04-03T03:16:01;16.47;;;15.00;;
819;SDS011;392;48.838;2.322;2023-04-03T03:18:29;16.90;;;15.30;;
819;SDS011;392;48.838;2.322;2023-04-03T03:20:58;16.67;;;15.17;;
819;SDS011;392;48.838;2.322;2023-04-03T03:23:27;16.10;;;14.47;;
819;SDS011;392;48.838;2.322;2023-04-03T03:25:57;16.73;;;15.23;;
819;SDS011;392;48.838;2.322;2023-04-03T03:28:27;16.60;;;15.10;;
819;SDS011;392;48.838;2.322;2023-04-03T03:30:54;15.03;;;13.70;;
819;SDS011;392;48.838;2.322;2023-04-03T03:33:24;15.90;;;14.50;;
819;SDS011;392;48.838;2.322;2023-04-03T03:35:52;16.60;;;15.07;;
819;SDS011;392;48.838;2.322;2023-04-03T03:38:21;16.30;;;14.80;;
819;SDS011;392;48.838;2.322;2023-04-03T03:40:49;15.53;;;14.03;;
819;SDS011;392;48.838;2.322;2023-04-03T03:43:19;16.17;;;14.70;;
819;SDS011;392;48.838;2.322;2023-04-03T03:45:49;15.47;;;13.97;;
819;SDS011;392;48.838;2.322;2023-04-03T03:48:17;14.63;;;13.20;;
819;SDS011;392;48.838;2.322;2023-04-03T03:50:47;14.17;;;12.90;;
819;SDS011;392;48.838;2.322;2023-04-03T03:53:17;14.43;;;13.13;;
819;SDS011;392;48.838;2.322;2023-04-03T03:55:45;14.17;;;12.87;;
819;SDS011;392;48.838;2.322;2023-04-03T03:58:13;14.07;;;12.77;;
819;SDS011;392;48.838;2.322;2023-04-03T04:00:41;13.90;;;12.60;;
819;SDS011;392;48.838;2.322;2023-04-03T04:03:09;14.10;;;12.70;;
819;SDS011;392;48.838;2.322;2023-04-03T04:05:36;14.30;;;12.90;;
819;SDS011;392;48.838;2.322;2023-04-03T04:08:05;14.00;;;12.80;;
819;SDS011;392;48.838;2.322;2023-04-03T04:10:32;13.73;;;12.43;;
819;SDS011;392;48.838;2.322;2023-04-03T04:13:01;13.17;;;11.87;;
819;SDS011;392;48.838;2.322;2023-04-03T04:15:28;13.13;;;11.90;;
819;SDS011;392;48.838;2.322;2023-04-03T04:17:57;13.63;;;12.43;;
819;SDS011;392;48.838;2.322;2023-04-03T04:20:24;13.20;;;12.07;;
819;SDS011;392;48.838;2.322;2023-04-03T04:22:52;13.47;;;12.17;;
819;SDS011;392;48.838;2.322;2023-04-03T04:25:22;12.67;;;11.53;;
819;SDS011;392;48.838;2.322;2023-04-03T04:27:50;12.87;;;11.73;;
819;SDS011;392;48.838;2.322;2023-04-03T04:30:17;13.20;;;12.00;;
819;SDS011;392;48.838;2.322;2023-04-03T04:32:47;13.13;;;11.93;;
819;SDS011;392;48.838;2.322;2023-04-03T04:35:15;13.30;;;12.13;;
819;SDS011;392;48.838;2.322;2023-04-03T04:37:46;12.70;;;11.60;;
819;SDS011;392;48.838;2.322;2023-04-03T04:40:13;14.30;;;12.90;;
819;SDS011;392;48.838;2.322;2023-04-03T04:42:42;13.60;;;12.27;;
819;SDS011;392;48.838;2.322;2023-04-03T04:45:10;12.27;;;11.20;;
819;SDS011;392;48.838;2.322;2023-04-03T04:47:39;13.93;;;12.73;;
819;SDS011;392;48.838;2.322;2023-04-03T04:50:08;14.07;;;12.77;;
819;SDS011;392;48.838;2.322;2023-04-03T04:52:36;13.77;;;12.57;;
819;SDS011;392;48.838;2.322;2023-04-03T04:55:06;12.93;;;11.83;;
819;SDS011;392;48.838;2.322;2023-04-03T04:57:34;13.33;;;12.13;;
819;SDS011;392;48.838;2.322;2023-04-03T05:00:04;13.50;;;12.20;;
819;SDS011;392;48.838;2.322;2023-04-03T05:02:33;13.87;;;12.47;;
819;SDS011;392;48.838;2.322;2023-04-03T05:05:01;13.07;;;11.87;;
819;SDS011;392;48.838;2.322;2023-04-03T05:07:29;13.50;;;12.27;;
819;SDS011;392;48.838;2.322;2023-04-03T05:09:58;13.40;;;12.10;;
819;SDS011;392;48.838;2.322;2023-04-03T05:12:26;13.57;;;12.37;;
819;SDS011;392;48.838;2.322;2023-04-03T05:14:58;13.30;;;12.10;;
819;SDS011;392;48.838;2.322;2023-04-03T05:17:29;13.03;;;11.93;;
819;SDS011;392;48.838;2.322;2023-04-03T05:19:57;13.33;;;12.13;;
819;SDS011;392;48.838;2.322;2023-04-03T05:22:26;13.57;;;12.40;;
819;SDS011;392;48.838;2.322;2023-04-03T05:24:57;14.00;;;12.80;;
819;SDS011;392;48.838;2.322;2023-04-03T05:27:26;15.40;;;14.17;;
819;SDS011;392;48.838;2.322;2023-04-03T05:29:55;14.40;;;13.20;;
819;SDS011;392;48.838;2.322;2023-04-03T05:32:24;13.00;;;11.90;;
819;SDS011;392;48.838;2.322;2023-04-03T05:35:04;13.80;;;12.47;;
819;SDS011;392;48.838;2.322;2023-04-03T05:37:33;14.00;;;12.90;;
819;SDS011;392;48.838;2.322;2023-04-03T05:40:01;14.20;;;13.10;;
819;SDS011;392;48.838;2.322;2023-04-03T05:42:29;14.97;;;13.67;;
819;SDS011;392;48.838;2.322;2023-04-03T05:44:58;13.73;;;12.63;;
819;SDS011;392;48.838;2.322;2023-04-03T05:47:25;15.30;;;13.90;;
819;SDS011;392;48.838;2.322;2023-04-03T05:49:53;13.47;;;12.33;;
819;SDS011;392;48.838;2.322;2023-04-03T05:52:22;13.30;;;12.30;;
819;SDS011;392;48.838;2.322;2023-04-03T05:54:54;14.07;;;13.00;;
819;SDS011;392;48.838;2.322;2023-04-03T05:57:25;13.77;;;12.67;;
819;SDS011;392;48.838;2.322;2023-04-03T05:59:52;16.27;;;14.90;;
819;SDS011;392;48.838;2.322;2023-04-03T06:02:22;14.13;;;13.03;;
819;SDS011;392;48.838;2.322;2023-04-03T06:04:51;15.03;;;13.87;;
819;SDS011;392;48.838;2.322;2023-04-03T06:07:19;14.73;;;13.53;;
819;SDS011;392;48.838;2.322;2023-04-03T06:09:52;14.50;;;13.30;;
819;SDS011;392;48.838;2.322;2023-04-03T06:12:21;14.67;;;13.47;;
819;SDS011;392;48.838;2.322;2023-04-03T06:14:49;14.07;;;12.87;;
819;SDS011;392;48.838;2.322;2023-04-03T06:17:16;14.17;;;13.07;;
819;SDS011;392;48.838;2.322;2023-04-03T06:19:44;15.30;;;14.00;;
819;SDS011;392;48.838;2.322;2023-04-03T06:22:12;15.53;;;14.13;;
819;SDS011;392;48.838;2.322;2023-04-03T06:24:42;13.80;;;12.70;;
819;SDS011;392;48.838;2.322;2023-04-03T06:27:10;14.57;;;13.37;;
819;SDS011;392;48.838;2.322;2023-04-03T06:29:38;13.83;;;12.73;;
819;SDS011;392;48.838;2.322;2023-04-03T06:32:05;14.25;;;13.05;;
819;SDS011;392;48.838;2.322;2023-04-03T06:34:34;14.27;;;13.07;;
819;SDS011;392;48.838;2.322;2023-04-03T06:37:01;14.17;;;12.97;;
819;SDS011;392;48.838;2.322;2023-04-03T06:39:28;19.33;;;14.75;;
819;SDS011;392;48.838;2.322;2023-04-03T06:41:57;14.20;;;13.10;;
819;SDS011;392;48.838;2.322;2023-04-03T06:44:29;14.40;;;13.23;;
819;SDS011;392;48.838;2.322;2023-04-03T06:46:56;14.97;;;13.67;;
819;SDS011;392;48.838;2.322;2023-04-03T06:49:23;14.20;;;13.00;;
819;SDS011;392;48.838;2.322;2023-04-03T06:51:51;14.73;;;13.33;;
819;SDS011;392;48.838;2.322;2023-04-03T06:54:20;14.73;;;13.50;;
819;SDS011;392;48.838;2.322;2023-04-03T06:56:48;14.50;;;13.30;;
819;SDS011;392;48.838;2.322;2023-04-03T06:59:18;14.53;;;13.20;;
819;SDS011;392;48.838;2.322;2023-04-03T07:01:45;14.77;;;13.47;;
819;SDS011;392;48.838;2.322;2023-04-03T07:04:13;13.67;;;12.47;;
819;SDS011;392;48.838;2.322;2023-04-03T07:06:40;14.10;;;12.80;;
819;SDS011;392;48.838;2.322;2023-04-03T07:09:08;14.73;;;13.33;;
819;SDS011;392;48.838;2.322;2023-04-03T07:11:36;13.77;;;12.67;;
819;SDS011;392;48.838;2.322;2023-04-03T07:14:03;14.07;;;12.77;;
819;SDS011;392;48.838;2.322;2023-04-03T07:16:34;14.03;;;12.93;;
819;SDS011;392;48.838;2.322;2023-04-03T07:19:02;13.07;;;12.03;;
819;SDS011;392;48.838;2.322;2023-04-03T07:21:29;13.70;;;12.53;;
819;SDS011;392;48.838;2.322;2023-04-03T07:23:57;13.90;;;12.80;;
819;SDS011;392;48.838;2.322;2023-04-03T07:26:24;13.73;;;12.63;;
819;SDS011;392;48.838;2.322;2023-04-03T07:28:51;14.07;;;12.67;;
819;SDS011;392;48.838;2.322;2023-04-03T07:31:19;12.37;;;11.47;;
819;SDS011;392;48.838;2.322;2023-04-03T07:33:47;13.00;;;11.97;;
819;SDS011;392;48.838;2.322;2023-04-03T07:36:16;12.90;;;11.70;;
819;SDS011;392;48.838;2.322;2023-04-03T07:38:46;13.90;;;12.70;;
819;SDS011;392;48.838;2.322;2023-04-03T07:41:13;12.50;;;11.50;;
819;SDS011;392;48.838;2.322;2023-04-03T07:43:43;11.57;;;10.67;;
819;SDS011;392;48.838;2.322;2023-04-03T07:46:11;10.83;;;9.93;;
819;SDS011;392;48.838;2.322;2023-04-03T07:48:39;11.30;;;10.30;;
819;SDS011;392;48.838;2.322;2023-04-03T07:51:07;11.50;;;10.40;;
819;SDS011;392;48.838;2.322;2023-04-03T07:53:36;10.30;;;9.50;;
819;SDS011;392;48.838;2.322;2023-04-03T07:56:03;11.30;;;10.30;;
819;SDS011;392;48.838;2.322;2023-04-03T07:58:31;11.30;;;10.40;;
819;SDS011;392;48.838;2.322;2023-04-03T08:00:59;11.10;;;10.20;;
819;SDS011;392;48.838;2.322;2023-04-03T08:03:26;11.57;;;10.50;;
819;SDS011;392;48.838;2.322;2023-04-03T08:05:54;10.70;;;9.90;;
819;SDS011;392;48.838;2.322;2023-04-03T08:08:22;10.03;;;9.10;;
819;SDS011;392;48.838;2.322;2023-04-03T08:10:50;9.80;;;9.00;;
819;SDS011;392;48.838;2.322;2023-04-03T08:13:20;10.40;;;9.50;;
819;SDS011;392;48.838;2.322;2023-04-03T08:15:48;10.23;;;9.43;;
819;SDS011;392;48.838;2.322;2023-04-03T08:18:16;9.27;;;8.50;;
819;SDS011;392;48.838;2.322;2023-04-03T08:20:46;9.13;;;8.43;;
819;SDS011;392;48.838;2.322;2023-04-03T08:23:14;8.77;;;8.07;;
819;SDS011;392;48.838;2.322;2023-04-03T08:25:43;8.20;;;7.60;;
819;SDS011;392;48.838;2.322;2023-04-03T08:28:11;7.50;;;7.00;;
819;SDS011;392;48.838;2.322;2023-04-03T08:30:39;6.00;;;5.70;;
819;SDS011;392;48.838;2.322;2023-04-03T08:33:08;6.50;;;6.00;;
819;SDS011;392;48.838;2.322;2023-04-03T08:35:37;7.13;;;6.63;;
819;SDS011;392;48.838;2.322;2023-04-03T08:38:06;5.50;;;5.20;;
819;SDS011;392;48.838;2.322;2023-04-03T08:40:34;6.03;;;5.50;;
819;SDS011;392;48.838;2.322;2023-04-03T08:43:06;6.33;;;5.83;;
819;SDS011;392;48.838;2.322;2023-04-03T08:45:53;5.70;;;5.40;;
819;SDS011;392;48.838;2.322;2023-04-03T08:48:26;5.53;;;5.23;;
819;SDS011;392;48.838;2.322;2023-04-03T08:50:57;5.53;;;5.23;;
819;SDS011;392;48.838;2.322;2023-04-03T08:53:30;5.40;;;5.10;;
819;SDS011;392;48.838;2.322;2023-04-03T08:56:02;5.90;;;5.60;;
819;SDS011;392;48.838;2.322;2023-04-03T08:58:36;6.17;;;5.77;;
819;SDS011;392;48.838;2.322;2023-04-03T09:01:15;5.83;;;5.37;;
819;SDS011;392;48.838;2.322;2023-04-03T09:03:47;5.27;;;4.90;;
819;SDS011;392;48.838;2.322;2023-04-03T09:06:14;5.77;;;5.47;;
819;SDS011;392;48.838;2.322;2023-04-03T09:08:46;5.83;;;5.43;;
819;SDS011;392;48.838;2.322;2023-04-03T09:11:21;6.03;;;5.63;;
819;SDS011;392;48.838;2.322;2023-04-03T09:13:56;5.63;;;5.33;;
819;SDS011;392;48.838;2.322;2023-04-03T09:16:31;5.73;;;5.33;;
819;SDS011;392;48.838;2.322;2023-04-03T09:19:15;6.33;;;5.87;;
819;SDS011;392;48.838;2.322;2023-04-03T09:22:03;5.30;;;5.00;;
819;SDS011;392;48.838;2.322;2023-04-03T09:24:40;5.50;;;5.20;;
819;SDS011;392;48.838;2.322;2023-04-03T09:27:09;5.00;;;4.70;;
819;SDS011;392;48.838;2.322;2023-04-03T09:29:39;5.33;;;4.93;;
819;SDS011;392;48.838;2.322;2023-04-03T09:32:18;5.07;;;4.77;;
819;SDS011;392;48.838;2.322;2023-04-03T09:34:50;5.80;;;5.40;;
819;SDS011;392;48.838;2.322;2023-04-03T09:37:39;5.53;;;5.10;;
819;SDS011;392;48.838;2.322;2023-04-03T09:40:28;5.47;;;5.07;;
819;SDS011;392;48.838;2.322;2023-04-03T09:43:20;5.27;;;4.87;;
819;SDS011;392;48.838;2.322;2023-04-03T09:45:53;5.60;;;5.10;;
819;SDS011;392;48.838;2.322;2023-04-03T09:48:22;5.47;;;5.00;;
819;SDS011;392;48.838;2.322;2023-04-03T09:50:54;5.37;;;4.97;;
819;SDS011;392;48.838;2.322;2023-04-03T09:53:33;5.17;;;4.87;;
819;SDS011;392;48.838;2.322;2023-04-03T09:56:04;5.20;;;4.90;;
819;SDS011;392;48.838;2.322;2023-04-03T09:58:48;5.50;;;5.10;;
819;SDS011;392;48.838;2.322;2023-04-03T10:01:22;6.00;;;5.60;;
819;SDS011;392;48.838;2.322;2023-04-03T10:04:04;5.53;;;5.13;;
819;SDS011;392;48.838;2.322;2023-04-03T10:06:37;6.30;;;5.90;;
819;SDS011;392;48.838;2.322;2023-04-03T10:09:15;5.30;;;4.90;;
819;SDS011;392;48.838;2.322;2023-04-03T10:11:57;4.63;;;4.33;;
819;SDS011;392;48.838;2.322;2023-04-03T10:14:30;5.03;;;4.63;;
819;SDS011;392;48.838;2.322;2023-04-03T10:17:01;4.70;;;4.40;;
819;SDS011;392;48.838;2.322;2023-04-03T10:19:40;5.00;;;4.70;;
819;SDS011;392;48.838;2.322;2023-04-03T10:22:13;4.73;;;4.53;;
819;SDS011;392;48.838;2.322;2023-04-03T10:24:54;5.63;;;5.23;;
819;SDS011;392;48.838;2.322;2023-04-03T10:27:38;6.20;;;5.70;;
819;SDS011;392;48.838;2.322;2023-04-03T10:30:19;5.60;;;5.30;;
819;SDS011;392;48.838;2.322;2023-04-03T10:33:00;6.97;;;6.30;;
819;SDS011;392;48.838;2.322;2023-04-03T10:35:44;5.80;;;5.50;;
819;SDS011;392;48.838;2.322;2023-04-03T10:38:24;6.07;;;5.67;;
819;SDS011;392;48.838;2.322;2023-04-03T10:41:01;5.23;;;4.77;;
819;SDS011;392;48.838;2.322;2023-04-03T10:43:36;5.67;;;5.37;;
819;SDS011;392;48.838;2.322;2023-04-03T10:46:11;6.67;;;6.27;;
819;SDS011;392;48.838;2.322;2023-04-03T10:48:56;6.20;;;5.90;;
819;SDS011;392;48.838;2.322;2023-04-03T10:51:41;6.23;;;5.80;;
819;SDS011;392;48.838;2.322;2023-04-03T10:54:12;6.13;;;5.80;;
819;SDS011;392;48.838;2.322;2023-04-03T10:56:44;6.30;;;6.00;;
819;SDS011;392;48.838;2.322;2023-04-03T10:59:18;6.90;;;6.50;;
819;SDS011;392;48.838;2.322;2023-04-03T11:01:53;7.17;;;6.77;;
819;SDS011;392;48.838;2.322;2023-04-03T11:04:25;6.27;;;5.97;;
819;SDS011;392;48.838;2.322;2023-04-03T11:06:57;6.60;;;6.20;;
819;SDS011;392;48.838;2.322;2023-04-03T11:09:30;6.30;;;6.00;;
819;SDS011;392;48.838;2.322;2023-04-03T11:12:04;6.17;;;5.87;;
819;SDS011;392;48.838;2.322;2023-04-03T11:14:38;5.90;;;5.60;;
819;SDS011;392;48.838;2.322;2023-04-03T11:17:10;6.20;;;5.70;;
819;SDS011;392;48.838;2.322;2023-04-03T11:19:51;5.30;;;5.10;;
819;SDS011;392;48.838;2.322;2023-04-03T11:22:32;5.70;;;5.40;;
819;SDS011;392;48.838;2.322;2023-04-03T11:25:05;5.73;;;5.40;;
819;SDS011;392;48.838;2.322;2023-04-03T11:27:48;5.30;;;5.10;;
819;SDS011;392;48.838;2.322;2023-04-03T11:30:22;7.70;;;7.23;;
819;SDS011;392;48.838;2.322;2023-04-03T11:32:58;6.17;;;5.77;;
819;SDS011;392;48.838;2.322;2023-04-03T11:35:50;6.47;;;6.07;;
819;SDS011;392;48.838;2.322;2023-04-03T11:38:23;6.07;;;5.77;;
819;SDS011;392;48.838;2.322;2023-04-03T11:40:54;5.70;;;5.50;;
819;SDS011;392;48.838;2.322;2023-04-03T11:43:24;6.17;;;5.87;;
819;SDS011;392;48.838;2.322;2023-04-03T11:45:55;5.53;;;5.33;;
819;SDS011;392;48.838;2.322;2023-04-03T11:48:42;6.40;;;6.00;;
819;SDS011;392;48.838;2.322;2023-04-03T12:00:51;5.90;;;5.60;;
819;SDS011;392;48.838;2.322;2023-04-03T12:12:40;5.50;;;5.13;;
819;SDS011;392;48.838;2.322;2023-04-03T12:15:19;5.50;;;5.20;;
819;SDS011;392;48.838;2.322;2023-04-03T12:21:11;5.27;;;5.00;;
819;SDS011;392;48.838;2.322;2023-04-03T12:23:57;5.23;;;5.03;;
819;SDS011;392;48.838;2.322;2023-04-03T12:26:30;4.73;;;4.53;;
819;SDS011;392;48.838;2.322;2023-04-03T12:29:10;4.73;;;4.53;;
819;SDS011;392;48.838;2.322;2023-04-03T12:31:46;4.70;;;4.50;;
819;SDS011;392;48.838;2.322;2023-04-03T12:34:28;5.37;;;5.07;;
819;SDS011;392;48.838;2.322;2023-04-03T12:37:16;4.87;;;4.60;;
819;SDS011;392;48.838;2.322;2023-04-03T12:40:06;5.50;;;5.20;;
819;SDS011;392;48.838;2.322;2023-04-03T12:42:52;4.20;;;3.90;;
819;SDS011;392;48.838;2.322;2023-04-03T12:45:49;5.00;;;4.60;;
819;SDS011;392;48.838;2.322;2023-04-03T12:48:25;4.57;;;4.37;;
819;SDS011;392;48.838;2.322;2023-04-03T12:50:56;4.37;;;4.17;;
819;SDS011;392;48.838;2.322;2023-04-03T12:53:25;3.73;;;3.60;;
819;SDS011;392;48.838;2.322;2023-04-03T12:55:57;3.63;;;3.43;;
819;SDS011;392;48.838;2.322;2023-04-03T12:58:47;3.87;;;3.70;;
819;SDS011;392;48.838;2.322;2023-04-03T13:01:16;3.80;;;3.60;;
819;SDS011;392;48.838;2.322;2023-04-03T13:03:48;4.30;;;4.00;;
819;SDS011;392;48.838;2.322;2023-04-03T13:06:19;4.20;;;3.90;;
819;SDS011;392;48.838;2.322;2023-04-03T13:08:50;4.33;;;3.90;;
819;SDS011;392;48.838;2.322;2023-04-03T13:11:20;3.80;;;3.60;;
819;SDS011;392;48.838;2.322;2023-04-03T13:13:56;3.40;;;3.30;;
819;SDS011;392;48.838;2.322;2023-04-03T13:16:25;3.83;;;3.63;;
819;SDS011;392;48.838;2.322;2023-04-03T13:18:54;3.80;;;3.60;;
819;SDS011;392;48.838;2.322;2023-04-03T13:21:22;3.67;;;3.43;;
819;SDS011;392;48.838;2.322;2023-04-03T13:23:53;3.80;;;3.60;;
819;SDS011;392;48.838;2.322;2023-04-03T13:26:25;3.83;;;3.63;;
819;SDS011;392;48.838;2.322;2023-04-03T13:28:57;3.90;;;3.60;;
819;SDS011;392;48.838;2.322;2023-04-03T13:31:29;4.20;;;4.00;;
819;SDS011;392;48.838;2.322;2023-04-03T13:34:02;4.47;;;4.17;;
819;SDS011;392;48.838;2.322;2023-04-03T13:36:34;4.43;;;4.13;;
819;SDS011;392;48.838;2.322;2023-04-03T13:39:04;3.77;;;3.67;;
819;SDS011;392;48.838;2.322;2023-04-03T13:41:46;3.87;;;3.67;;
819;SDS011;392;48.838;2.322;2023-04-03T13:44:26;3.63;;;3.43;;
819;SDS011;392;48.838;2.322;2023-04-03T13:46:58;4.20;;;3.90;;
819;SDS011;392;48.838;2.322;2023-04-03T13:49:30;4.17;;;3.97;;
819;SDS011;392;48.838;2.322;2023-04-03T13:52:03;4.50;;;4.30;;
819;SDS011;392;48.838;2.322;2023-04-03T13:54:51;4.07;;;3.87;;
819;SDS011;392;48.838;2.322;2023-04-03T13:57:22;4.00;;;3.70;;
819;SDS011;392;48.838;2.322;2023-04-03T13:59:49;4.10;;;3.80;;
819;SDS011;392;48.838;2.322;2023-04-03T14:02:18;4.13;;;3.83;;
819;SDS011;392;48.838;2.322;2023-04-03T14:04:53;4.30;;;4.00;;
819;SDS011;392;48.838;2.322;2023-04-03T14:07:25;3.77;;;3.57;;
819;SDS011;392;48.838;2.322;2023-04-03T14:09:53;3.57;;;3.37;;
819;SDS011;392;48.838;2.322;2023-04-03T14:12:24;3.70;;;3.50;;
819;SDS011;392;48.838;2.322;2023-04-03T14:14:55;4.00;;;3.70;;
819;SDS011;392;48.838;2.322;2023-04-03T14:17:23;3.87;;;3.57;;
819;SDS011;392;48.838;2.322;2023-04-03T14:19:53;3.80;;;3.53;;
819;SDS011;392;48.838;2.322;2023-04-03T14:22:23;3.50;;;3.30;;
819;SDS011;392;48.838;2.322;2023-04-03T14:24:53;4.10;;;3.70;;
819;SDS011;392;48.838;2.322;2023-04-03T14:27:23;3.60;;;3.30;;
819;SDS011;392;48.838;2.322;2023-04-03T14:29:54;3.97;;;3.67;;
819;SDS011;392;48.838;2.322;2023-04-03T14:32:23;3.20;;;3.00;;
819;SDS011;392;48.838;2.322;2023-04-03T14:34:51;3.47;;;3.27;;
819;SDS011;392;48.838;2.322;2023-04-03T14:37:21;3.43;;;3.23;;
819;SDS011;392;48.838;2.322;2023-04-03T14:39:51;3.20;;;3.00;;
819;SDS011;392;48.838;2.322;2023-04-03T14:42:20;3.13;;;2.93;;
819;SDS011;392;48.838;2.322;2023-04-03T14:44:52;2.97;;;2.87;;
819;SDS011;392;48.838;2.322;2023-04-03T14:47:20;3.83;;;3.53;;
819;SDS011;392;48.838;2.322;2023-04-03T14:49:51;3.27;;;2.97;;
819;SDS011;392;48.838;2.322;2023-04-03T14:52:19;3.17;;;2.97;;
819;SDS011;392;48.838;2.322;2023-04-03T14:54:50;3.87;;;3.50;;
819;SDS011;392;48.838;2.322;2023-04-03T14:57:18;3.17;;;2.97;;
819;SDS011;392;48.838;2.322;2023-04-03T14:59:50;3.77;;;3.47;;
819;SDS011;392;48.838;2.322;2023-04-03T15:02:24;3.50;;;3.30;;
819;SDS011;392;48.838;2.322;2023-04-03T15:04:54;3.70;;;3.40;;
819;SDS011;392;48.838;2.322;2023-04-03T15:07:23;3.33;;;3.07;;
819;SDS011;392;48.838;2.322;2023-04-03T15:09:53;3.83;;;3.43;;
819;SDS011;392;48.838;2.322;2023-04-03T15:12:23;3.23;;;3.03;;
819;SDS011;392;48.838;2.322;2023-04-03T15:14:51;2.73;;;2.63;;
819;SDS011;392;48.838;2.322;2023-04-03T15:17:19;3.17;;;2.93;;
819;SDS011;392;48.838;2.322;2023-04-03T15:19:49;3.23;;;3.03;;
819;SDS011;392;48.838;2.322;2023-04-03T15:22:17;3.30;;;3.10;;
819;SDS011;392;48.838;2.322;2023-04-03T15:24:45;3.23;;;3.03;;
819;SDS011;392;48.838;2.322;2023-04-03T15:27:13;2.90;;;2.80;;
819;SDS011;392;48.838;2.322;2023-04-03T15:29:43;3.40;;;3.20;;
819;SDS011;392;48.838;2.322;2023-04-03T15:32:11;3.27;;;3.13;;
819;SDS011;392;48.838;2.322;2023-04-03T15:34:39;3.33;;;3.03;;
819;SDS011;392;48.838;2.322;2023-04-03T15:37:07;2.90;;;2.70;;
819;SDS011;392;48.838;2.322;2023-04-03T15:39:34;3.43;;;3.13;;
819;SDS011;392;48.838;2.322;2023-04-03T15:42:01;2.43;;;2.30;;
819;SDS011;392;48.838;2.322;2023-04-03T15:44:31;3.23;;;2.93;;
819;SDS011;392;48.838;2.322;2023-04-03T15:47:01;3.33;;;3.03;;
819;SDS011;392;48.838;2.322;2023-04-03T15:49:28;3.40;;;3.20;;
819;SDS011;392;48.838;2.322;2023-04-03T15:51:57;3.30;;;3.10;;
819;SDS011;392;48.838;2.322;2023-04-03T15:54:24;3.50;;;3.30;;
819;SDS011;392;48.838;2.322;2023-04-03T15:56:52;2.90;;;2.70;;
819;SDS011;392;48.838;2.322;2023-04-03T15:59:20;3.00;;;2.80;;
819;SDS011;392;48.838;2.322;2023-04-03T16:01:48;3.33;;;3.10;;
819;SDS011;392;48.838;2.322;2023-04-03T16:04:17;3.57;;;3.37;;
819;SDS011;392;48.838;2.322;2023-04-03T16:06:46;3.20;;;2.93;;
819;SDS011;392;48.838;2.322;2023-04-03T16:09:13;2.97;;;2.67;;
819;SDS011;392;48.838;2.322;2023-04-03T16:11:41;2.60;;;2.50;;
819;SDS011;392;48.838;2.322;2023-04-03T16:14:08;3.57;;;3.37;;
819;SDS011;392;48.838;2.322;2023-04-03T16:16:36;3.33;;;3.13;;